sensor_id;sensor_type;location;lat;lon;timestamp;temperature;humidity
53264;DHT22;39153;52.680;6.172;2023-04-24T00:01:43;10.90;99.90
53264;DHT22;39153;52.680;6.172;2023-04-24T00:04:09;10.90;99.90
53264;DHT22;39153;52.680;6.172;2023-04-24T00:06:37;10.80;99.90
53264;DHT22;39153;52.680;6.172;2023-04-24T00:09:05;10.80;99.90
53264;DHT22;39153;52.680;6.172;2023-04-24T00:11:31;10.80;99.90
53264;DHT22;39153;52.680;6.172;2023-04-24T00:13:57;10.80;99.90
53264;DHT22;39153;52.680;6.172;2023-04-24T00:16:23;10.80;99.90
53264;DHT22;39153;52.680;6.172;2023-04-24T00:18:49;10.70;99.90
53264;DHT22;39153;52.680;6.172;2023-04-24T00:21:15;10.70;99.90
53264;DHT22;39153;52.680;6.172;2023-04-24T00:23:43;10.80;99.90
53264;DHT22;39153;52.680;6.172;2023-04-24T00:26:09;10.70;99.90
53264;DHT22;39153;52.680;6.172;2023-04-24T00:28:35;10.80;99.90
53264;DHT22;39153;52.680;6.172;2023-04-24T00:31:01;10.70;99.90
53264;DHT22;39153;52.680;6.172;2023-04-24T00:33:26;10.70;99.90
53264;DHT22;39153;52.680;6.172;2023-04-24T00:35:52;10.70;99.90
53264;DHT22;39153;52.680;6.172;2023-04-24T00:38:18;10.70;99.90
53264;DHT22;39153;52.680;6.172;2023-04-24T00:40:44;10.70;99.90
53264;DHT22;39153;52.680;6.172;2023-04-24T00:43:10;10.70;99.90
53264;DHT22;39153;52.680;6.172;2023-04-24T00:45:36;10.70;99.90
53264;DHT22;39153;52.680;6.172;2023-04-24T00:48:02;10.80;99.90
53264;DHT22;39153;52.680;6.172;2023-04-24T00:50:28;10.70;99.90
53264;DHT22;39153;52.680;6.172;2023-04-24T00:52:54;10.70;99.90
53264;DHT22;39153;52.680;6.172;2023-04-24T00:55:20;10.80;99.90
53264;DHT22;39153;52.680;6.172;2023-04-24T00:57:47;10.80;99.90
53264;DHT22;39153;52.680;6.172;2023-04-24T01:00:14;10.80;99.90
53264;DHT22;39153;52.680;6.172;2023-04-24T01:02:41;10.80;99.90
53264;DHT22;39153;52.680;6.172;2023-04-24T01:05:14;10.80;99.90
53264;DHT22;39153;52.680;6.172;2023-04-24T01:07:45;10.80;99.90
53264;DHT22;39153;52.680;6.172;2023-04-24T01:10:11;10.80;99.90
53264;DHT22;39153;52.680;6.172;2023-04-24T01:12:38;10.80;99.90
53264;DHT22;39153;52.680;6.172;2023-04-24T01:15:04;10.80;99.90
53264;DHT22;39153;52.680;6.172;2023-04-24T01:17:32;10.80;99.90
53264;DHT22;39153;52.680;6.172;2023-04-24T01:19:58;10.80;99.90
53264;DHT22;39153;52.680;6.172;2023-04-24T01:22:25;10.80;99.90
53264;DHT22;39153;52.680;6.172;2023-04-24T01:24:52;11.00;99.90
53264;DHT22;39153;52.680;6.172;2023-04-24T01:27:18;10.70;99.90
53264;DHT22;39153;52.680;6.172;2023-04-24T01:29:44;10.70;99.90
53264;DHT22;39153;52.680;6.172;2023-04-24T01:32:10;10.60;99.90
53264;DHT22;39153;52.680;6.172;2023-04-24T01:34:37;10.70;99.90
53264;DHT22;39153;52.680;6.172;2023-04-24T01:37:03;10.60;99.90
53264;DHT22;39153;52.680;6.172;2023-04-24T01:39:28;10.60;99.90
53264;DHT22;39153;52.680;6.172;2023-04-24T01:41:55;10.50;99.90
53264;DHT22;39153;52.680;6.172;2023-04-24T01:44:21;10.50;99.90
53264;DHT22;39153;52.680;6.172;2023-04-24T01:46:47;10.50;99.90
53264;DHT22;39153;52.680;6.172;2023-04-24T01:49:13;10.40;99.90
53264;DHT22;39153;52.680;6.172;2023-04-24T01:51:38;10.50;99.90
53264;DHT22;39153;52.680;6.172;2023-04-24T01:54:04;10.40;99.90
53264;DHT22;39153;52.680;6.172;2023-04-24T01:56:33;10.40;99.90
53264;DHT22;39153;52.680;6.172;2023-04-24T01:59:03;10.30;99.90
53264;DHT22;39153;52.680;6.172;2023-04-24T02:01:36;10.30;99.90
53264;DHT22;39153;52.680;6.172;2023-04-24T02:04:02;10.30;99.90
53264;DHT22;39153;52.680;6.172;2023-04-24T02:06:28;10.30;99.90
53264;DHT22;39153;52.680;6.172;2023-04-24T02:08:54;10.30;99.90
53264;DHT22;39153;52.680;6.172;2023-04-24T02:11:19;10.30;99.90
53264;DHT22;39153;52.680;6.172;2023-04-24T02:13:45;10.20;99.90
53264;DHT22;39153;52.680;6.172;2023-04-24T02:16:11;10.20;99.90
53264;DHT22;39153;52.680;6.172;2023-04-24T02:18:36;10.20;99.90
53264;DHT22;39153;52.680;6.172;2023-04-24T02:21:02;10.30;99.90
53264;DHT22;39153;52.680;6.172;2023-04-24T02:23:28;10.20;99.90
53264;DHT22;39153;52.680;6.172;2023-04-24T02:25:54;10.20;99.90
53264;DHT22;39153;52.680;6.172;2023-04-24T02:28:21;10.20;99.90
53264;DHT22;39153;52.680;6.172;2023-04-24T02:30:46;10.20;99.90
53264;DHT22;39153;52.680;6.172;2023-04-24T02:33:12;10.20;99.90
53264;DHT22;39153;52.680;6.172;2023-04-24T02:35:38;10.10;99.90
53264;DHT22;39153;52.680;6.172;2023-04-24T02:38:03;10.20;99.90
53264;DHT22;39153;52.680;6.172;2023-04-24T02:40:29;10.10;99.90
53264;DHT22;39153;52.680;6.172;2023-04-24T02:42:55;10.10;99.90
53264;DHT22;39153;52.680;6.172;2023-04-24T02:45:21;10.10;99.90
53264;DHT22;39153;52.680;6.172;2023-04-24T02:47:47;10.10;99.90
53264;DHT22;39153;52.680;6.172;2023-04-24T02:50:12;10.10;99.90
53264;DHT22;39153;52.680;6.172;2023-04-24T02:52:38;10.10;99.90
53264;DHT22;39153;52.680;6.172;2023-04-24T02:55:05;10.10;99.90
53264;DHT22;39153;52.680;6.172;2023-04-24T02:57:31;10.10;99.90
53264;DHT22;39153;52.680;6.172;2023-04-24T02:59:56;10.10;99.90
53264;DHT22;39153;52.680;6.172;2023-04-24T03:02:22;10.10;99.90
53264;DHT22;39153;52.680;6.172;2023-04-24T03:04:47;10.10;99.90
53264;DHT22;39153;52.680;6.172;2023-04-24T03:07:13;10.20;99.90
53264;DHT22;39153;52.680;6.172;2023-04-24T03:09:40;10.20;99.90
53264;DHT22;39153;52.680;6.172;2023-04-24T03:12:06;10.20;99.90
53264;DHT22;39153;52.680;6.172;2023-04-24T03:14:31;10.20;99.90
53264;DHT22;39153;52.680;6.172;2023-04-24T03:16:57;10.30;99.90
53264;DHT22;39153;52.680;6.172;2023-04-24T03:19:23;10.30;99.90
53264;DHT22;39153;52.680;6.172;2023-04-24T03:21:49;10.30;99.90
53264;DHT22;39153;52.680;6.172;2023-04-24T03:24:15;10.30;99.90
53264;DHT22;39153;52.680;6.172;2023-04-24T03:26:41;10.20;99.90
53264;DHT22;39153;52.680;6.172;2023-04-24T03:29:06;10.20;99.90
53264;DHT22;39153;52.680;6.172;2023-04-24T03:31:32;10.10;99.90
53264;DHT22;39153;52.680;6.172;2023-04-24T03:33:58;10.20;99.90
53264;DHT22;39153;52.680;6.172;2023-04-24T03:36:23;10.10;99.90
53264;DHT22;39153;52.680;6.172;2023-04-24T03:38:49;10.00;99.90
53264;DHT22;39153;52.680;6.172;2023-04-24T03:41:15;9.90;99.90
53264;DHT22;39153;52.680;6.172;2023-04-24T03:43:41;9.90;99.90
53264;DHT22;39153;52.680;6.172;2023-04-24T03:46:06;9.80;99.90
53264;DHT22;39153;52.680;6.172;2023-04-24T03:48:35;9.80;99.90
53264;DHT22;39153;52.680;6.172;2023-04-24T03:51:00;9.70;99.90
53264;DHT22;39153;52.680;6.172;2023-04-24T03:53:26;9.70;99.90
53264;DHT22;39153;52.680;6.172;2023-04-24T03:55:53;9.70;99.90
53264;DHT22;39153;52.680;6.172;2023-04-24T03:58:18;9.70;99.90
53264;DHT22;39153;52.680;6.172;2023-04-24T04:00:44;9.60;99.90
53264;DHT22;39153;52.680;6.172;2023-04-24T04:03:12;9.70;99.90
53264;DHT22;39153;52.680;6.172;2023-04-24T04:05:39;9.60;99.90
53264;DHT22;39153;52.680;6.172;2023-04-24T04:08:04;9.60;99.90
53264;DHT22;39153;52.680;6.172;2023-04-24T04:10:30;9.60;99.90
53264;DHT22;39153;52.680;6.172;2023-04-24T04:12:56;9.50;99.90
53264;DHT22;39153;52.680;6.172;2023-04-24T04:15:21;9.60;99.90
53264;DHT22;39153;52.680;6.172;2023-04-24T04:17:47;9.50;99.90
53264;DHT22;39153;52.680;6.172;2023-04-24T04:20:13;9.50;99.90
53264;DHT22;39153;52.680;6.172;2023-04-24T04:22:39;9.60;99.90
53264;DHT22;39153;52.680;6.172;2023-04-24T04:25:05;9.60;99.90
53264;DHT22;39153;52.680;6.172;2023-04-24T04:27:30;9.60;99.90
53264;DHT22;39153;52.680;6.172;2023-04-24T04:30:00;9.70;99.90
53264;DHT22;39153;52.680;6.172;2023-04-24T04:32:33;9.70;99.90
53264;DHT22;39153;52.680;6.172;2023-04-24T04:35:00;9.70;99.90
53264;DHT22;39153;52.680;6.172;2023-04-24T04:37:29;9.80;99.90
53264;DHT22;39153;52.680;6.172;2023-04-24T04:39:54;9.90;99.90
53264;DHT22;39153;52.680;6.172;2023-04-24T04:42:20;10.00;99.90
53264;DHT22;39153;52.680;6.172;2023-04-24T04:44:46;10.00;99.90
53264;DHT22;39153;52.680;6.172;2023-04-24T04:47:12;10.10;99.90
53264;DHT22;39153;52.680;6.172;2023-04-24T04:49:38;10.10;99.90
53264;DHT22;39153;52.680;6.172;2023-04-24T04:52:04;10.30;99.90
53264;DHT22;39153;52.680;6.172;2023-04-24T04:54:30;10.30;99.90
53264;DHT22;39153;52.680;6.172;2023-04-24T04:56:56;10.20;99.90
53264;DHT22;39153;52.680;6.172;2023-04-24T04:59:22;10.10;99.90
53264;DHT22;39153;52.680;6.172;2023-04-24T05:01:48;10.10;99.90
53264;DHT22;39153;52.680;6.172;2023-04-24T05:04:14;10.30;99.90
53264;DHT22;39153;52.680;6.172;2023-04-24T05:06:40;10.20;99.90
53264;DHT22;39153;52.680;6.172;2023-04-24T05:09:05;10.20;99.90
53264;DHT22;39153;52.680;6.172;2023-04-24T05:11:32;10.30;99.90
53264;DHT22;39153;52.680;6.172;2023-04-24T05:13:58;10.30;99.90
53264;DHT22;39153;52.680;6.172;2023-04-24T05:16:24;10.10;99.90
53264;DHT22;39153;52.680;6.172;2023-04-24T05:18:49;10.20;99.90
53264;DHT22;39153;52.680;6.172;2023-04-24T05:21:15;10.20;99.90
53264;DHT22;39153;52.680;6.172;2023-04-24T05:23:41;10.20;99.90
53264;DHT22;39153;52.680;6.172;2023-04-24T05:26:07;10.00;99.90
53264;DHT22;39153;52.680;6.172;2023-04-24T05:28:32;10.00;99.90
53264;DHT22;39153;52.680;6.172;2023-04-24T05:30:58;10.10;99.90
53264;DHT22;39153;52.680;6.172;2023-04-24T05:33:25;10.10;99.90
53264;DHT22;39153;52.680;6.172;2023-04-24T05:35:51;10.00;99.90
53264;DHT22;39153;52.680;6.172;2023-04-24T05:38:16;10.10;99.90
53264;DHT22;39153;52.680;6.172;2023-04-24T05:40:48;10.00;99.90
53264;DHT22;39153;52.680;6.172;2023-04-24T05:43:13;10.00;99.90
53264;DHT22;39153;52.680;6.172;2023-04-24T05:45:39;10.00;99.90
53264;DHT22;39153;52.680;6.172;2023-04-24T05:48:05;10.00;99.90
53264;DHT22;39153;52.680;6.172;2023-04-24T05:50:31;10.00;99.90
53264;DHT22;39153;52.680;6.172;2023-04-24T05:52:57;10.10;99.90
53264;DHT22;39153;52.680;6.172;2023-04-24T05:55:27;10.00;99.90
53264;DHT22;39153;52.680;6.172;2023-04-24T05:57:53;9.90;99.90
53264;DHT22;39153;52.680;6.172;2023-04-24T06:00:19;10.00;99.90
53264;DHT22;39153;52.680;6.172;2023-04-24T06:02:46;10.10;99.90
53264;DHT22;39153;52.680;6.172;2023-04-24T06:05:12;10.10;99.90
53264;DHT22;39153;52.680;6.172;2023-04-24T06:07:38;10.10;99.90
53264;DHT22;39153;52.680;6.172;2023-04-24T06:10:04;10.00;99.90
53264;DHT22;39153;52.680;6.172;2023-04-24T06:12:30;10.10;99.90
53264;DHT22;39153;52.680;6.172;2023-04-24T06:14:56;10.00;99.90
53264;DHT22;39153;52.680;6.172;2023-04-24T06:17:22;9.90;99.90
53264;DHT22;39153;52.680;6.172;2023-04-24T06:19:47;9.90;99.90
53264;DHT22;39153;52.680;6.172;2023-04-24T06:22:13;10.00;99.90
53264;DHT22;39153;52.680;6.172;2023-04-24T06:24:42;9.80;99.90
53264;DHT22;39153;52.680;6.172;2023-04-24T06:27:07;9.80;99.90
53264;DHT22;39153;52.680;6.172;2023-04-24T06:29:33;9.90;99.90
53264;DHT22;39153;52.680;6.172;2023-04-24T06:31:59;10.00;99.90
53264;DHT22;39153;52.680;6.172;2023-04-24T06:34:25;10.00;99.90
53264;DHT22;39153;52.680;6.172;2023-04-24T06:36:51;9.90;99.90
53264;DHT22;39153;52.680;6.172;2023-04-24T06:39:16;9.90;99.90
53264;DHT22;39153;52.680;6.172;2023-04-24T06:41:42;9.80;99.90
53264;DHT22;39153;52.680;6.172;2023-04-24T06:44:08;9.90;99.90
53264;DHT22;39153;52.680;6.172;2023-04-24T06:46:34;9.90;99.90
53264;DHT22;39153;52.680;6.172;2023-04-24T06:49:00;9.80;99.90
53264;DHT22;39153;52.680;6.172;2023-04-24T06:51:26;9.70;99.90
53264;DHT22;39153;52.680;6.172;2023-04-24T06:53:55;9.80;99.90
53264;DHT22;39153;52.680;6.172;2023-04-24T06:56:24;9.90;99.90
53264;DHT22;39153;52.680;6.172;2023-04-24T06:58:50;9.70;99.90
53264;DHT22;39153;52.680;6.172;2023-04-24T07:01:16;9.80;99.90
53264;DHT22;39153;52.680;6.172;2023-04-24T07:03:42;9.70;99.90
53264;DHT22;39153;52.680;6.172;2023-04-24T07:06:09;9.70;99.90
53264;DHT22;39153;52.680;6.172;2023-04-24T07:08:35;9.80;99.90
53264;DHT22;39153;52.680;6.172;2023-04-24T07:11:02;9.70;99.90
53264;DHT22;39153;52.680;6.172;2023-04-24T07:13:28;9.70;99.90
53264;DHT22;39153;52.680;6.172;2023-04-24T07:15:54;9.70;99.90
53264;DHT22;39153;52.680;6.172;2023-04-24T07:18:21;9.80;99.90
53264;DHT22;39153;52.680;6.172;2023-04-24T07:20:47;9.70;99.90
53264;DHT22;39153;52.680;6.172;2023-04-24T07:23:15;9.80;99.90
53264;DHT22;39153;52.680;6.172;2023-04-24T07:25:41;9.60;99.90
53264;DHT22;39153;52.680;6.172;2023-04-24T07:28:07;9.80;99.90
53264;DHT22;39153;52.680;6.172;2023-04-24T07:30:33;9.70;99.90
53264;DHT22;39153;52.680;6.172;2023-04-24T07:32:59;9.80;99.90
53264;DHT22;39153;52.680;6.172;2023-04-24T07:35:26;9.70;99.90
53264;DHT22;39153;52.680;6.172;2023-04-24T07:37:53;9.70;99.90
53264;DHT22;39153;52.680;6.172;2023-04-24T07:40:19;9.80;99.90
53264;DHT22;39153;52.680;6.172;2023-04-24T07:42:45;9.70;99.90
53264;DHT22;39153;52.680;6.172;2023-04-24T07:45:14;9.90;99.90
53264;DHT22;39153;52.680;6.172;2023-04-24T07:47:41;9.70;99.90
53264;DHT22;39153;52.680;6.172;2023-04-24T07:50:09;9.80;99.90
53264;DHT22;39153;52.680;6.172;2023-04-24T07:52:35;9.70;99.90
53264;DHT22;39153;52.680;6.172;2023-04-24T07:55:01;9.80;99.90
53264;DHT22;39153;52.680;6.172;2023-04-24T07:57:28;9.70;99.90
53264;DHT22;39153;52.680;6.172;2023-04-24T07:59:54;9.60;99.90
53264;DHT22;39153;52.680;6.172;2023-04-24T08:02:20;9.60;99.90
53264;DHT22;39153;52.680;6.172;2023-04-24T08:04:54;9.40;99.90
53264;DHT22;39153;52.680;6.172;2023-04-24T08:07:20;9.50;99.90
53264;DHT22;39153;52.680;6.172;2023-04-24T08:09:46;9.40;99.90
53264;DHT22;39153;52.680;6.172;2023-04-24T08:12:12;9.30;99.90
53264;DHT22;39153;52.680;6.172;2023-04-24T08:14:37;9.50;99.90
53264;DHT22;39153;52.680;6.172;2023-04-24T08:17:03;9.40;99.90
53264;DHT22;39153;52.680;6.172;2023-04-24T08:19:29;9.30;99.90
53264;DHT22;39153;52.680;6.172;2023-04-24T08:21:54;9.30;99.90
53264;DHT22;39153;52.680;6.172;2023-04-24T08:24:20;9.30;99.90
53264;DHT22;39153;52.680;6.172;2023-04-24T08:26:46;9.20;99.90
53264;DHT22;39153;52.680;6.172;2023-04-24T08:29:12;9.20;99.90
53264;DHT22;39153;52.680;6.172;2023-04-24T08:31:37;9.10;99.90
53264;DHT22;39153;52.680;6.172;2023-04-24T08:34:03;9.20;99.90
53264;DHT22;39153;52.680;6.172;2023-04-24T08:36:28;9.10;99.90
53264;DHT22;39153;52.680;6.172;2023-04-24T08:38:55;9.10;99.90
53264;DHT22;39153;52.680;6.172;2023-04-24T08:41:21;9.00;99.90
53264;DHT22;39153;52.680;6.172;2023-04-24T08:43:50;8.90;99.90
53264;DHT22;39153;52.680;6.172;2023-04-24T08:46:16;8.90;99.90
53264;DHT22;39153;52.680;6.172;2023-04-24T08:48:44;8.90;99.90
53264;DHT22;39153;52.680;6.172;2023-04-24T08:51:10;9.00;99.90
53264;DHT22;39153;52.680;6.172;2023-04-24T08:53:37;8.90;99.90
53264;DHT22;39153;52.680;6.172;2023-04-24T08:56:03;8.90;99.90
53264;DHT22;39153;52.680;6.172;2023-04-24T08:58:31;9.10;99.90
53264;DHT22;39153;52.680;6.172;2023-04-24T09:00:57;9.10;99.90
53264;DHT22;39153;52.680;6.172;2023-04-24T09:03:24;9.10;99.90
53264;DHT22;39153;52.680;6.172;2023-04-24T09:05:52;9.10;99.90
53264;DHT22;39153;52.680;6.172;2023-04-24T09:08:22;9.10;99.90
53264;DHT22;39153;52.680;6.172;2023-04-24T09:10:49;9.30;99.90
53264;DHT22;39153;52.680;6.172;2023-04-24T09:13:14;9.40;99.90
53264;DHT22;39153;52.680;6.172;2023-04-24T09:15:41;9.30;99.90
53264;DHT22;39153;52.680;6.172;2023-04-24T09:18:07;9.60;99.90
53264;DHT22;39153;52.680;6.172;2023-04-24T09:20:33;9.50;99.90
53264;DHT22;39153;52.680;6.172;2023-04-24T09:23:01;9.70;99.90
53264;DHT22;39153;52.680;6.172;2023-04-24T09:25:34;9.60;99.90
53264;DHT22;39153;52.680;6.172;2023-04-24T09:28:04;9.70;99.90
53264;DHT22;39153;52.680;6.172;2023-04-24T09:30:32;9.60;99.90
53264;DHT22;39153;52.680;6.172;2023-04-24T09:33:14;9.70;99.90
53264;DHT22;39153;52.680;6.172;2023-04-24T09:35:50;9.60;99.90
53264;DHT22;39153;52.680;6.172;2023-04-24T09:38:17;9.60;99.90
53264;DHT22;39153;52.680;6.172;2023-04-24T09:40:42;9.60;99.90
53264;DHT22;39153;52.680;6.172;2023-04-24T09:43:11;9.70;99.90
53264;DHT22;39153;52.680;6.172;2023-04-24T09:45:39;9.70;99.90
53264;DHT22;39153;52.680;6.172;2023-04-24T09:48:05;9.70;99.90
53264;DHT22;39153;52.680;6.172;2023-04-24T09:50:34;9.70;99.90
53264;DHT22;39153;52.680;6.172;2023-04-24T09:53:05;9.70;99.90
53264;DHT22;39153;52.680;6.172;2023-04-24T09:55:31;9.60;99.90
53264;DHT22;39153;52.680;6.172;2023-04-24T09:58:01;9.40;99.90
53264;DHT22;39153;52.680;6.172;2023-04-24T10:00:27;9.30;99.90
53264;DHT22;39153;52.680;6.172;2023-04-24T10:03:00;9.20;99.90
53264;DHT22;39153;52.680;6.172;2023-04-24T10:05:31;9.10;99.90
53264;DHT22;39153;52.680;6.172;2023-04-24T10:08:18;9.10;99.90
53264;DHT22;39153;52.680;6.172;2023-04-24T10:10:45;9.00;99.90
53264;DHT22;39153;52.680;6.172;2023-04-24T10:13:13;9.10;99.90
53264;DHT22;39153;52.680;6.172;2023-04-24T10:15:40;9.10;99.90
53264;DHT22;39153;52.680;6.172;2023-04-24T10:18:07;9.10;99.90
53264;DHT22;39153;52.680;6.172;2023-04-24T10:20:35;9.20;99.90
53264;DHT22;39153;52.680;6.172;2023-04-24T10:23:02;9.20;99.90
53264;DHT22;39153;52.680;6.172;2023-04-24T10:25:34;9.20;99.90
53264;DHT22;39153;52.680;6.172;2023-04-24T10:28:00;9.30;99.90
53264;DHT22;39153;52.680;6.172;2023-04-24T10:30:29;9.50;99.90
53264;DHT22;39153;52.680;6.172;2023-04-24T10:32:55;9.40;99.90
53264;DHT22;39153;52.680;6.172;2023-04-24T10:35:22;9.50;99.90
53264;DHT22;39153;52.680;6.172;2023-04-24T10:37:56;9.50;99.90
53264;DHT22;39153;52.680;6.172;2023-04-24T10:40:35;9.60;99.90
53264;DHT22;39153;52.680;6.172;2023-04-24T10:43:05;9.70;99.90
53264;DHT22;39153;52.680;6.172;2023-04-24T10:45:34;9.80;99.90
53264;DHT22;39153;52.680;6.172;2023-04-24T10:48:04;9.80;99.90
53264;DHT22;39153;52.680;6.172;2023-04-24T10:50:52;9.90;99.90
53264;DHT22;39153;52.680;6.172;2023-04-24T10:53:23;10.00;99.90
53264;DHT22;39153;52.680;6.172;2023-04-24T10:56:03;10.10;99.90
53264;DHT22;39153;52.680;6.172;2023-04-24T10:58:43;10.10;99.90
53264;DHT22;39153;52.680;6.172;2023-04-24T11:01:24;10.10;99.90
53264;DHT22;39153;52.680;6.172;2023-04-24T11:03:54;10.10;99.90
53264;DHT22;39153;52.680;6.172;2023-04-24T11:06:32;10.10;99.90
53264;DHT22;39153;52.680;6.172;2023-04-24T11:09:06;10.00;99.90
53264;DHT22;39153;52.680;6.172;2023-04-24T11:11:34;10.00;99.90
53264;DHT22;39153;52.680;6.172;2023-04-24T11:14:01;10.00;99.90
53264;DHT22;39153;52.680;6.172;2023-04-24T11:21:48;10.00;99.90
53264;DHT22;39153;52.680;6.172;2023-04-24T11:35:00;9.80;99.90
53264;DHT22;39153;52.680;6.172;2023-04-24T11:37:41;9.70;99.90
53264;DHT22;39153;52.680;6.172;2023-04-24T11:40:10;9.60;99.90
53264;DHT22;39153;52.680;6.172;2023-04-24T11:42:41;9.60;99.90
53264;DHT22;39153;52.680;6.172;2023-04-24T11:45:09;9.60;99.90
53264;DHT22;39153;52.680;6.172;2023-04-24T11:47:35;9.60;99.90
53264;DHT22;39153;52.680;6.172;2023-04-24T11:50:03;9.60;99.90
53264;DHT22;39153;52.680;6.172;2023-04-24T11:52:30;9.60;99.90
53264;DHT22;39153;52.680;6.172;2023-04-24T11:54:56;9.50;99.90
53264;DHT22;39153;52.680;6.172;2023-04-24T11:57:25;9.60;99.90
53264;DHT22;39153;52.680;6.172;2023-04-24T11:59:59;9.60;99.90
53264;DHT22;39153;52.680;6.172;2023-04-24T12:02:26;9.60;99.90
53264;DHT22;39153;52.680;6.172;2023-04-24T12:04:53;9.60;99.90
53264;DHT22;39153;52.680;6.172;2023-04-24T12:07:19;9.70;99.90
53264;DHT22;39153;52.680;6.172;2023-04-24T12:09:47;9.70;99.90
53264;DHT22;39153;52.680;6.172;2023-04-24T12:12:17;9.80;99.90
53264;DHT22;39153;52.680;6.172;2023-04-24T12:14:50;9.80;99.90
53264;DHT22;39153;52.680;6.172;2023-04-24T12:17:24;9.80;99.90
53264;DHT22;39153;52.680;6.172;2023-04-24T12:19:50;9.80;99.90
53264;DHT22;39153;52.680;6.172;2023-04-24T12:22:16;9.90;99.90
53264;DHT22;39153;52.680;6.172;2023-04-24T12:24:59;9.90;99.90
53264;DHT22;39153;52.680;6.172;2023-04-24T12:27:29;9.80;99.90
53264;DHT22;39153;52.680;6.172;2023-04-24T12:29:59;9.70;99.90
53264;DHT22;39153;52.680;6.172;2023-04-24T12:32:25;9.60;99.90
53264;DHT22;39153;52.680;6.172;2023-04-24T12:34:52;9.50;99.90
53264;DHT22;39153;52.680;6.172;2023-04-24T12:37:18;9.60;99.90
53264;DHT22;39153;52.680;6.172;2023-04-24T12:40:01;9.50;99.90
53264;DHT22;39153;52.680;6.172;2023-04-24T12:42:30;9.50;99.90
53264;DHT22;39153;52.680;6.172;2023-04-24T12:45:05;9.50;99.90
53264;DHT22;39153;52.680;6.172;2023-04-24T12:47:32;9.50;99.90
53264;DHT22;39153;52.680;6.172;2023-04-24T12:49:59;9.60;99.90
53264;DHT22;39153;52.680;6.172;2023-04-24T12:52:26;9.70;99.90
53264;DHT22;39153;52.680;6.172;2023-04-24T12:54:54;9.70;99.90
53264;DHT22;39153;52.680;6.172;2023-04-24T12:57:20;9.70;99.90
53264;DHT22;39153;52.680;6.172;2023-04-24T12:59:46;9.70;99.90
53264;DHT22;39153;52.680;6.172;2023-04-24T13:02:12;9.70;99.90
53264;DHT22;39153;52.680;6.172;2023-04-24T13:04:38;9.80;99.90
53264;DHT22;39153;52.680;6.172;2023-04-24T13:07:04;9.90;99.90
53264;DHT22;39153;52.680;6.172;2023-04-24T13:09:30;9.90;99.90
53264;DHT22;39153;52.680;6.172;2023-04-24T13:11:56;9.90;99.90
53264;DHT22;39153;52.680;6.172;2023-04-24T13:14:23;9.90;99.90
53264;DHT22;39153;52.680;6.172;2023-04-24T13:16:49;9.90;99.90
53264;DHT22;39153;52.680;6.172;2023-04-24T13:19:15;9.90;99.90
53264;DHT22;39153;52.680;6.172;2023-04-24T13:21:40;9.90;99.90
53264;DHT22;39153;52.680;6.172;2023-04-24T13:24:06;9.80;99.90
53264;DHT22;39153;52.680;6.172;2023-04-24T13:26:33;9.90;99.90
53264;DHT22;39153;52.680;6.172;2023-04-24T13:28:59;9.90;99.90
53264;DHT22;39153;52.680;6.172;2023-04-24T13:31:24;9.90;99.90
53264;DHT22;39153;52.680;6.172;2023-04-24T13:33:50;9.80;99.90
53264;DHT22;39153;52.680;6.172;2023-04-24T13:36:16;9.80;99.90
53264;DHT22;39153;52.680;6.172;2023-04-24T13:38:43;9.70;99.90
53264;DHT22;39153;52.680;6.172;2023-04-24T13:41:10;9.60;99.90
53264;DHT22;39153;52.680;6.172;2023-04-24T13:43:36;9.50;99.90
53264;DHT22;39153;52.680;6.172;2023-04-24T13:46:01;9.40;99.90
53264;DHT22;39153;52.680;6.172;2023-04-24T13:48:29;9.40;99.90
53264;DHT22;39153;52.680;6.172;2023-04-24T13:50:55;9.40;99.90
53264;DHT22;39153;52.680;6.172;2023-04-24T13:53:21;9.40;99.90
53264;DHT22;39153;52.680;6.172;2023-04-24T13:55:47;9.40;99.90
53264;DHT22;39153;52.680;6.172;2023-04-24T13:58:13;9.40;99.90
53264;DHT22;39153;52.680;6.172;2023-04-24T14:00:39;9.40;99.90
53264;DHT22;39153;52.680;6.172;2023-04-24T14:03:04;9.40;99.90
53264;DHT22;39153;52.680;6.172;2023-04-24T14:05:30;9.40;99.90
53264;DHT22;39153;52.680;6.172;2023-04-24T14:07:56;9.40;99.90
53264;DHT22;39153;52.680;6.172;2023-04-24T14:10:21;9.40;99.90
53264;DHT22;39153;52.680;6.172;2023-04-24T14:12:47;9.20;99.90
53264;DHT22;39153;52.680;6.172;2023-04-24T14:15:13;9.10;99.90
53264;DHT22;39153;52.680;6.172;2023-04-24T14:17:39;9.00;99.90
53264;DHT22;39153;52.680;6.172;2023-04-24T14:20:06;9.00;99.90
53264;DHT22;39153;52.680;6.172;2023-04-24T14:22:32;9.10;99.90
53264;DHT22;39153;52.680;6.172;2023-04-24T14:24:58;9.00;99.90
53264;DHT22;39153;52.680;6.172;2023-04-24T14:27:24;8.90;99.90
53264;DHT22;39153;52.680;6.172;2023-04-24T14:29:50;9.00;99.90
53264;DHT22;39153;52.680;6.172;2023-04-24T14:32:16;9.00;99.90
53264;DHT22;39153;52.680;6.172;2023-04-24T14:34:42;9.10;99.90
53264;DHT22;39153;52.680;6.172;2023-04-24T14:37:07;9.20;99.90
53264;DHT22;39153;52.680;6.172;2023-04-24T14:39:33;9.30;99.90
53264;DHT22;39153;52.680;6.172;2023-04-24T14:41:59;9.30;99.90
53264;DHT22;39153;52.680;6.172;2023-04-24T14:44:26;9.30;99.90
53264;DHT22;39153;52.680;6.172;2023-04-24T14:46:52;9.20;99.90
53264;DHT22;39153;52.680;6.172;2023-04-24T14:49:18;9.20;99.90
53264;DHT22;39153;52.680;6.172;2023-04-24T14:51:44;9.10;99.90
53264;DHT22;39153;52.680;6.172;2023-04-24T14:54:10;9.10;99.90
53264;DHT22;39153;52.680;6.172;2023-04-24T14:56:35;9.20;99.90
53264;DHT22;39153;52.680;6.172;2023-04-24T14:59:01;9.10;99.90
53264;DHT22;39153;52.680;6.172;2023-04-24T15:01:27;9.10;99.90
53264;DHT22;39153;52.680;6.172;2023-04-24T15:03:53;8.80;99.90
53264;DHT22;39153;52.680;6.172;2023-04-24T15:06:19;8.60;99.90
53264;DHT22;39153;52.680;6.172;2023-04-24T15:08:45;8.50;99.90
53264;DHT22;39153;52.680;6.172;2023-04-24T15:11:11;8.60;99.90
53264;DHT22;39153;52.680;6.172;2023-04-24T15:13:37;8.70;99.90
53264;DHT22;39153;52.680;6.172;2023-04-24T15:16:03;8.60;99.90
53264;DHT22;39153;52.680;6.172;2023-04-24T15:18:29;8.70;99.90
53264;DHT22;39153;52.680;6.172;2023-04-24T15:20:55;8.70;99.90
53264;DHT22;39153;52.680;6.172;2023-04-24T15:23:21;8.70;99.90
53264;DHT22;39153;52.680;6.172;2023-04-24T15:25:47;8.80;99.90
53264;DHT22;39153;52.680;6.172;2023-04-24T15:28:13;8.80;99.90
53264;DHT22;39153;52.680;6.172;2023-04-24T15:30:39;9.00;99.90
53264;DHT22;39153;52.680;6.172;2023-04-24T15:33:04;9.10;99.90
53264;DHT22;39153;52.680;6.172;2023-04-24T15:35:30;9.30;99.90
53264;DHT22;39153;52.680;6.172;2023-04-24T15:37:56;9.30;99.90
53264;DHT22;39153;52.680;6.172;2023-04-24T15:40:22;9.40;99.90
53264;DHT22;39153;52.680;6.172;2023-04-24T15:42:47;9.50;99.90
53264;DHT22;39153;52.680;6.172;2023-04-24T15:45:13;9.50;99.90
53264;DHT22;39153;52.680;6.172;2023-04-24T15:47:39;9.60;99.90
53264;DHT22;39153;52.680;6.172;2023-04-24T15:50:05;9.60;99.90
53264;DHT22;39153;52.680;6.172;2023-04-24T15:52:33;9.50;99.90
53264;DHT22;39153;52.680;6.172;2023-04-24T15:54:59;9.40;99.90